Terminal Aerodrome Forecast
Issued by NWS

Home | Current Version | Previous Version | Text Only | Print | Product List | Glossary On
Versions: 1 2 3 4 5 6 7 8 9 10 11 12 13 14
460
FTUS45 KABQ 201724
TAFROW
TAF
KROW 201724Z 2018/2118 18022G32KT P6SM SCT080
     FM202100 21028G38KT P6SM BKN080
     FM210000 26023G33KT P6SM SCT090
     FM210300 32015KT P6SM SKC=

USA.gov is the U.S. government's official web portal to all federal, state and local government web resources and services.